sensor_id;sensor_type;location;lat;lon;timestamp;pressure;altitude;pressure_sealevel;temperature;humidity
61318;BME280;47201;40.428;-8.436;2023-04-04T00:00:05;100325.56;;;12.33;100.00
61318;BME280;47201;40.428;-8.436;2023-04-04T00:02:05;100321.22;;;12.32;100.00
61318;BME280;47201;40.428;-8.436;2023-04-04T00:04:07;100316.88;;;12.31;100.00
61318;BME280;47201;40.428;-8.436;2023-04-04T00:06:08;100315.16;;;12.30;100.00
61318;BME280;47201;40.428;-8.436;2023-04-04T00:08:09;100312.53;;;12.29;100.00
61318;BME280;47201;40.428;-8.436;2023-04-04T00:10:10;100312.53;;;12.29;100.00
61318;BME280;47201;40.428;-8.436;2023-04-04T00:12:29;100315.16;;;12.29;100.00
61318;BME280;47201;40.428;-8.436;2023-04-04T00:14:30;100303.84;;;12.27;100.00
61318;BME280;47201;40.428;-8.436;2023-04-04T00:16:31;100298.63;;;12.27;100.00
61318;BME280;47201;40.428;-8.436;2023-04-04T00:18:33;100301.22;;;12.27;100.00
61318;BME280;47201;40.428;-8.436;2023-04-04T00:20:34;100303.88;;;12.24;100.00
61318;BME280;47201;40.428;-8.436;2023-04-04T00:22:35;100303.03;;;12.23;100.00
61318;BME280;47201;40.428;-8.436;2023-04-04T00:24:54;100306.53;;;12.22;100.00
61318;BME280;47201;40.428;-8.436;2023-04-04T00:27:13;100303.03;;;12.23;100.00
61318;BME280;47201;40.428;-8.436;2023-04-04T00:29:13;100301.28;;;12.22;100.00
61318;BME280;47201;40.428;-8.436;2023-04-04T00:31:33;100310.03;;;12.21;100.00
61318;BME280;47201;40.428;-8.436;2023-04-04T00:33:52;100308.31;;;12.20;100.00
61318;BME280;47201;40.428;-8.436;2023-04-04T00:35:52;100299.56;;;12.21;100.00
61318;BME280;47201;40.428;-8.436;2023-04-04T00:38:15;100296.06;;;12.22;100.00
61318;BME280;47201;40.428;-8.436;2023-04-04T00:40:16;100296.91;;;12.22;100.00
61318;BME280;47201;40.428;-8.436;2023-04-04T00:42:36;100290.81;;;12.22;100.00
61318;BME280;47201;40.428;-8.436;2023-04-04T00:44:36;100293.41;;;12.24;100.00
61318;BME280;47201;40.428;-8.436;2023-04-04T00:46:37;100295.13;;;12.25;100.00
61318;BME280;47201;40.428;-8.436;2023-04-04T00:48:38;100294.28;;;12.24;100.00
61318;BME280;47201;40.428;-8.436;2023-04-04T00:50:40;100293.41;;;12.24;100.00
61318;BME280;47201;40.428;-8.436;2023-04-04T00:52:40;100285.56;;;12.22;100.00
61318;BME280;47201;40.428;-8.436;2023-04-04T00:54:44;100289.06;;;12.21;100.00
61318;BME280;47201;40.428;-8.436;2023-04-04T00:57:03;100294.31;;;12.21;100.00
61318;BME280;47201;40.428;-8.436;2023-04-04T00:59:06;100297.78;;;12.23;100.00
61318;BME280;47201;40.428;-8.436;2023-04-04T01:01:08;100293.41;;;12.24;100.00
61318;BME280;47201;40.428;-8.436;2023-04-04T01:03:12;100293.47;;;12.20;100.00
61318;BME280;47201;40.428;-8.436;2023-04-04T01:05:31;100292.59;;;12.20;100.00
61318;BME280;47201;40.428;-8.436;2023-04-04T01:07:35;100290.84;;;12.20;100.00
61318;BME280;47201;40.428;-8.436;2023-04-04T01:09:36;100286.50;;;12.18;100.00
61318;BME280;47201;40.428;-8.436;2023-04-04T01:11:37;100283.03;;;12.17;100.00
61318;BME280;47201;40.428;-8.436;2023-04-04T01:13:57;100281.28;;;12.16;100.00
61318;BME280;47201;40.428;-8.436;2023-04-04T01:15:58;100279.53;;;12.15;100.00
61318;BME280;47201;40.428;-8.436;2023-04-04T01:18:00;100275.22;;;12.13;100.00
61318;BME280;47201;40.428;-8.436;2023-04-04T01:20:21;100273.53;;;12.10;100.00
61318;BME280;47201;40.428;-8.436;2023-04-04T01:22:46;100270.03;;;12.08;100.00
61318;BME280;47201;40.428;-8.436;2023-04-04T01:24:50;100264.00;;;12.06;100.00
61318;BME280;47201;40.428;-8.436;2023-04-04T01:26:52;100260.50;;;12.04;100.00
61318;BME280;47201;40.428;-8.436;2023-04-04T01:28:54;100262.25;;;12.03;100.00
61318;BME280;47201;40.428;-8.436;2023-04-04T01:31:14;100268.41;;;12.01;100.00
61318;BME280;47201;40.428;-8.436;2023-04-04T01:33:41;100265.84;;;11.95;100.00
61318;BME280;47201;40.428;-8.436;2023-04-04T01:35:47;100259.72;;;11.97;100.00
61318;BME280;47201;40.428;-8.436;2023-04-04T01:37:53;100264.97;;;11.99;100.00
61318;BME280;47201;40.428;-8.436;2023-04-04T01:40:11;100262.38;;;11.93;100.00
61318;BME280;47201;40.428;-8.436;2023-04-04T01:42:14;100259.75;;;11.94;100.00
61318;BME280;47201;40.428;-8.436;2023-04-04T01:44:17;100254.50;;;11.96;100.00
61318;BME280;47201;40.428;-8.436;2023-04-04T01:46:36;100257.09;;;11.97;100.00
61318;BME280;47201;40.428;-8.436;2023-04-04T01:48:38;100259.72;;;11.99;100.00
61318;BME280;47201;40.428;-8.436;2023-04-04T01:50:40;100254.50;;;11.99;100.00
61318;BME280;47201;40.428;-8.436;2023-04-04T01:52:44;100258.81;;;12.01;100.00
61318;BME280;47201;40.428;-8.436;2023-04-04T01:55:04;100255.28;;;12.04;100.00
61318;BME280;47201;40.428;-8.436;2023-04-04T01:57:23;100251.78;;;12.05;100.00
61318;BME280;47201;40.428;-8.436;2023-04-04T01:59:45;100250.03;;;12.04;100.00
61318;BME280;47201;40.428;-8.436;2023-04-04T02:01:46;100255.28;;;12.04;100.00
61318;BME280;47201;40.428;-8.436;2023-04-04T02:03:46;100249.13;;;12.06;100.00
61318;BME280;47201;40.428;-8.436;2023-04-04T02:05:47;100249.97;;;12.07;100.00
61318;BME280;47201;40.428;-8.436;2023-04-04T02:07:48;100249.16;;;12.03;100.00
61318;BME280;47201;40.428;-8.436;2023-04-04T02:10:09;100247.47;;;11.99;100.00
61318;BME280;47201;40.428;-8.436;2023-04-04T02:12:28;100242.28;;;11.98;100.00
61318;BME280;47201;40.428;-8.436;2023-04-04T02:14:47;100229.16;;;11.96;100.00
61318;BME280;47201;40.428;-8.436;2023-04-04T02:16:47;100233.53;;;11.96;100.00
61318;BME280;47201;40.428;-8.436;2023-04-04T02:19:06;100235.31;;;11.97;100.00
61318;BME280;47201;40.428;-8.436;2023-04-04T02:21:09;100238.84;;;11.91;100.00
61318;BME280;47201;40.428;-8.436;2023-04-04T02:23:10;100238.00;;;11.87;100.00
61318;BME280;47201;40.428;-8.436;2023-04-04T02:25:10;100228.47;;;11.82;100.00
61318;BME280;47201;40.428;-8.436;2023-04-04T02:27:29;100232.88;;;11.81;100.00
61318;BME280;47201;40.428;-8.436;2023-04-04T02:29:30;100223.22;;;11.85;100.00
61318;BME280;47201;40.428;-8.436;2023-04-04T02:31:30;100225.78;;;11.89;100.00
61318;BME280;47201;40.428;-8.436;2023-04-04T02:33:32;100216.16;;;11.90;100.00
61318;BME280;47201;40.428;-8.436;2023-04-04T02:35:50;100220.53;;;11.88;100.00
61318;BME280;47201;40.428;-8.436;2023-04-04T02:38:10;100221.28;;;11.96;100.00
61318;BME280;47201;40.428;-8.436;2023-04-04T02:40:29;100222.19;;;11.97;100.00
61318;BME280;47201;40.428;-8.436;2023-04-04T02:42:30;100225.66;;;11.99;100.00
61318;BME280;47201;40.428;-8.436;2023-04-04T02:44:32;100218.56;;;12.05;100.00
61318;BME280;47201;40.428;-8.436;2023-04-04T02:46:33;100225.47;;;12.11;100.00
61318;BME280;47201;40.428;-8.436;2023-04-04T02:48:52;100216.66;;;12.15;100.00
61318;BME280;47201;40.428;-8.436;2023-04-04T02:50:53;100213.16;;;12.16;100.00
61318;BME280;47201;40.428;-8.436;2023-04-04T02:53:15;100211.34;;;12.20;100.00
61318;BME280;47201;40.428;-8.436;2023-04-04T02:55:18;100216.53;;;12.25;100.00
61318;BME280;47201;40.428;-8.436;2023-04-04T02:57:20;100206.06;;;12.21;100.00
61318;BME280;47201;40.428;-8.436;2023-04-04T02:59:20;100210.47;;;12.21;100.00
61318;BME280;47201;40.428;-8.436;2023-04-04T03:01:21;100203.47;;;12.21;100.00
61318;BME280;47201;40.428;-8.436;2023-04-04T03:03:21;100207.00;;;12.20;100.00
61318;BME280;47201;40.428;-8.436;2023-04-04T03:05:23;100196.56;;;12.17;100.00
61318;BME280;47201;40.428;-8.436;2023-04-04T03:07:24;100192.25;;;12.13;100.00
61318;BME280;47201;40.428;-8.436;2023-04-04T03:09:43;100192.25;;;12.13;100.00
61318;BME280;47201;40.428;-8.436;2023-04-04T03:12:03;100197.53;;;12.10;100.00
61318;BME280;47201;40.428;-8.436;2023-04-04T03:14:05;100191.47;;;12.06;100.00
61318;BME280;47201;40.428;-8.436;2023-04-04T03:16:10;100187.16;;;12.04;100.00
61318;BME280;47201;40.428;-8.436;2023-04-04T03:18:19;100181.97;;;12.01;100.00
61318;BME280;47201;40.428;-8.436;2023-04-04T03:20:39;100189.00;;;11.96;100.00
61318;BME280;47201;40.428;-8.436;2023-04-04T03:22:57;100185.53;;;11.94;100.00
61318;BME280;47201;40.428;-8.436;2023-04-04T03:24:58;100183.91;;;11.86;100.00
61318;BME280;47201;40.428;-8.436;2023-04-04T03:26:59;100176.09;;;11.83;100.00
61318;BME280;47201;40.428;-8.436;2023-04-04T03:29:01;100175.28;;;11.80;100.00
61318;BME280;47201;40.428;-8.436;2023-04-04T03:31:04;100164.84;;;11.77;100.00
61318;BME280;47201;40.428;-8.436;2023-04-04T03:33:14;100158.72;;;11.78;100.00
61318;BME280;47201;40.428;-8.436;2023-04-04T03:35:18;100162.22;;;11.77;100.00
61318;BME280;47201;40.428;-8.436;2023-04-04T03:37:19;100160.47;;;11.79;100.00
61318;BME280;47201;40.428;-8.436;2023-04-04T03:39:20;100161.31;;;11.79;100.00
61318;BME280;47201;40.428;-8.436;2023-04-04T03:41:39;100165.63;;;11.82;100.00
61318;BME280;47201;40.428;-8.436;2023-04-04T03:43:40;100162.94;;;11.86;100.00
61318;BME280;47201;40.428;-8.436;2023-04-04T03:45:41;100166.34;;;11.91;100.00
61318;BME280;47201;40.428;-8.436;2023-04-04T03:47:42;100172.47;;;11.92;100.00
61318;BME280;47201;40.428;-8.436;2023-04-04T03:49:43;100170.66;;;11.96;100.00
61318;BME280;47201;40.428;-8.436;2023-04-04T03:52:02;100171.47;;;12.01;100.00
61318;BME280;47201;40.428;-8.436;2023-04-04T03:54:04;100174.91;;;12.06;100.00
61318;BME280;47201;40.428;-8.436;2023-04-04T03:56:04;100167.88;;;12.08;100.00
61318;BME280;47201;40.428;-8.436;2023-04-04T03:58:05;100171.22;;;12.16;100.00
61318;BME280;47201;40.428;-8.436;2023-04-04T04:00:06;100172.03;;;12.20;100.00
61318;BME280;47201;40.428;-8.436;2023-04-04T04:02:13;100173.78;;;12.21;100.00
61318;BME280;47201;40.428;-8.436;2023-04-04T04:04:31;100182.50;;;12.21;100.00
61318;BME280;47201;40.428;-8.436;2023-04-04T04:06:32;100182.50;;;12.23;100.00
61318;BME280;47201;40.428;-8.436;2023-04-04T04:08:33;100186.81;;;12.26;100.00
61318;BME280;47201;40.428;-8.436;2023-04-04T04:10:34;100186.75;;;12.29;100.00
61318;BME280;47201;40.428;-8.436;2023-04-04T04:12:35;100186.69;;;12.32;100.00
61318;BME280;47201;40.428;-8.436;2023-04-04T04:14:53;100185.84;;;12.30;100.00
61318;BME280;47201;40.428;-8.436;2023-04-04T04:16:55;100183.22;;;12.30;100.00
61318;BME280;47201;40.428;-8.436;2023-04-04T04:19:14;100188.44;;;12.33;100.00
61318;BME280;47201;40.428;-8.436;2023-04-04T04:21:15;100179.69;;;12.34;100.00
61318;BME280;47201;40.428;-8.436;2023-04-04T04:23:17;100184.03;;;12.33;100.00
61318;BME280;47201;40.428;-8.436;2023-04-04T04:25:19;100187.63;;;12.29;100.00
61318;BME280;47201;40.428;-8.436;2023-04-04T04:27:39;100193.72;;;12.30;100.00
61318;BME280;47201;40.428;-8.436;2023-04-04T04:29:40;100197.22;;;12.29;100.00
61318;BME280;47201;40.428;-8.436;2023-04-04T04:31:44;100186.78;;;12.27;100.00
61318;BME280;47201;40.428;-8.436;2023-04-04T04:33:46;100187.66;;;12.26;100.00
61318;BME280;47201;40.428;-8.436;2023-04-04T04:35:46;100196.41;;;12.25;100.00
61318;BME280;47201;40.428;-8.436;2023-04-04T04:37:47;100185.19;;;12.18;100.00
61318;BME280;47201;40.428;-8.436;2023-04-04T04:39:49;100189.66;;;12.13;100.00
61318;BME280;47201;40.428;-8.436;2023-04-04T04:42:14;100187.09;;;12.07;100.00
61318;BME280;47201;40.428;-8.436;2023-04-04T04:44:21;100193.28;;;12.03;100.00
61318;BME280;47201;40.428;-8.436;2023-04-04T04:46:22;100198.47;;;12.08;100.00
61318;BME280;47201;40.428;-8.436;2023-04-04T04:48:23;100197.56;;;12.07;100.00
61318;BME280;47201;40.428;-8.436;2023-04-04T04:50:28;100196.75;;;12.05;100.00
61318;BME280;47201;40.428;-8.436;2023-04-04T04:52:51;100196.75;;;12.05;100.00
61318;BME280;47201;40.428;-8.436;2023-04-04T04:54:52;100201.13;;;12.04;100.00
61318;BME280;47201;40.428;-8.436;2023-04-04T04:56:56;100199.41;;;12.02;100.00
61318;BME280;47201;40.428;-8.436;2023-04-04T04:59:16;100200.31;;;11.99;100.00
61318;BME280;47201;40.428;-8.436;2023-04-04T05:01:18;100201.25;;;11.97;100.00
61318;BME280;47201;40.428;-8.436;2023-04-04T05:03:19;100197.72;;;11.96;100.00
61318;BME280;47201;40.428;-8.436;2023-04-04T05:05:22;100198.69;;;11.90;100.00
61318;BME280;47201;40.428;-8.436;2023-04-04T05:07:44;100203.19;;;11.82;100.00
61318;BME280;47201;40.428;-8.436;2023-04-04T05:09:46;100202.28;;;11.83;100.00
61318;BME280;47201;40.428;-8.436;2023-04-04T05:12:05;100200.66;;;11.76;100.00
61318;BME280;47201;40.428;-8.436;2023-04-04T05:14:14;100193.84;;;11.64;100.00
61318;BME280;47201;40.428;-8.436;2023-04-04T05:16:26;100196.47;;;11.63;100.00
61318;BME280;47201;40.428;-8.436;2023-04-04T05:18:30;100198.25;;;11.59;100.00
61318;BME280;47201;40.428;-8.436;2023-04-04T05:20:31;100207.00;;;11.59;100.00
61318;BME280;47201;40.428;-8.436;2023-04-04T05:22:35;100204.38;;;11.58;100.00
61318;BME280;47201;40.428;-8.436;2023-04-04T05:24:36;100215.75;;;11.55;100.00
61318;BME280;47201;40.428;-8.436;2023-04-04T05:26:37;100215.66;;;11.62;100.00
61318;BME280;47201;40.428;-8.436;2023-04-04T05:28:38;100218.28;;;11.62;100.00
61318;BME280;47201;40.428;-8.436;2023-04-04T05:30:58;100215.72;;;11.58;100.00
61318;BME280;47201;40.428;-8.436;2023-04-04T05:33:17;100219.28;;;11.53;100.00
61318;BME280;47201;40.428;-8.436;2023-04-04T05:35:26;100215.91;;;11.46;100.00
61318;BME280;47201;40.428;-8.436;2023-04-04T05:37:28;100226.38;;;11.45;100.00
61318;BME280;47201;40.428;-8.436;2023-04-04T05:39:29;100220.34;;;11.36;100.00
61318;BME280;47201;40.428;-8.436;2023-04-04T05:41:34;100223.88;;;11.34;100.00
61318;BME280;47201;40.428;-8.436;2023-04-04T05:43:43;100219.53;;;11.33;100.00
61318;BME280;47201;40.428;-8.436;2023-04-04T05:45:51;100223.09;;;11.25;100.00
61318;BME280;47201;40.428;-8.436;2023-04-04T05:47:52;100230.19;;;11.17;100.00
61318;BME280;47201;40.428;-8.436;2023-04-04T05:50:15;100231.25;;;11.02;100.00
61318;BME280;47201;40.428;-8.436;2023-04-04T05:52:15;100230.47;;;10.92;100.00
61318;BME280;47201;40.428;-8.436;2023-04-04T05:54:34;100236.66;;;10.85;100.00
61318;BME280;47201;40.428;-8.436;2023-04-04T05:56:53;100232.34;;;10.79;100.00
61318;BME280;47201;40.428;-8.436;2023-04-04T05:59:13;100236.81;;;10.70;100.00
61318;BME280;47201;40.428;-8.436;2023-04-04T06:01:26;100231.69;;;10.59;100.00
61318;BME280;47201;40.428;-8.436;2023-04-04T06:03:47;100235.16;;;10.58;100.00
61318;BME280;47201;40.428;-8.436;2023-04-04T06:05:55;100232.59;;;10.53;100.00
61318;BME280;47201;40.428;-8.436;2023-04-04T06:07:56;100243.03;;;10.53;100.00
61318;BME280;47201;40.428;-8.436;2023-04-04T06:10:15;100236.97;;;10.53;100.00
61318;BME280;47201;40.428;-8.436;2023-04-04T06:12:34;100241.34;;;10.51;100.00
61318;BME280;47201;40.428;-8.436;2023-04-04T06:14:36;100239.56;;;10.51;100.00
61318;BME280;47201;40.428;-8.436;2023-04-04T06:16:56;100240.47;;;10.48;100.00
61318;BME280;47201;40.428;-8.436;2023-04-04T06:18:57;100241.31;;;10.52;100.00
61318;BME280;47201;40.428;-8.436;2023-04-04T06:21:16;100230.94;;;10.43;100.00
61318;BME280;47201;40.428;-8.436;2023-04-04T06:23:35;100230.94;;;10.43;100.00
61318;BME280;47201;40.428;-8.436;2023-04-04T06:25:55;100239.63;;;10.45;100.00
61318;BME280;47201;40.428;-8.436;2023-04-04T06:27:57;100244.81;;;10.50;100.00
61318;BME280;47201;40.428;-8.436;2023-04-04T06:29:59;100243.94;;;10.51;100.00
61318;BME280;47201;40.428;-8.436;2023-04-04T06:32:00;100235.19;;;10.55;100.00
61318;BME280;47201;40.428;-8.436;2023-04-04T06:34:20;100245.56;;;10.64;100.00
61318;BME280;47201;40.428;-8.436;2023-04-04T06:36:39;100240.22;;;10.75;100.00
61318;BME280;47201;40.428;-8.436;2023-04-04T06:38:39;100235.78;;;10.86;100.00
61318;BME280;47201;40.428;-8.436;2023-04-04T06:40:58;100242.53;;;11.06;100.00
61318;BME280;47201;40.428;-8.436;2023-04-04T06:42:59;100257.06;;;11.32;100.00
61318;BME280;47201;40.428;-8.436;2023-04-04T06:45:06;100249.78;;;11.57;100.00
61318;BME280;47201;40.428;-8.436;2023-04-04T06:47:26;100251.03;;;11.92;100.00
61318;BME280;47201;40.428;-8.436;2023-04-04T06:49:45;100256.00;;;12.67;100.00
61318;BME280;47201;40.428;-8.436;2023-04-04T06:52:04;100262.09;;;13.61;100.00
61318;BME280;47201;40.428;-8.436;2023-04-04T06:54:23;100242.91;;;14.35;100.00
61318;BME280;47201;40.428;-8.436;2023-04-04T06:56:45;100255.53;;;15.24;100.00
61318;BME280;47201;40.428;-8.436;2023-04-04T06:58:46;100262.63;;;15.82;100.00
61318;BME280;47201;40.428;-8.436;2023-04-04T07:00:47;100258.66;;;15.98;100.00
61318;BME280;47201;40.428;-8.436;2023-04-04T07:03:06;100268.72;;;16.41;100.00
61318;BME280;47201;40.428;-8.436;2023-04-04T07:05:25;100266.34;;;17.36;95.20
61318;BME280;47201;40.428;-8.436;2023-04-04T07:07:44;100271.28;;;18.16;86.45
61318;BME280;47201;40.428;-8.436;2023-04-04T07:09:58;100271.50;;;18.10;84.98
61318;BME280;47201;40.428;-8.436;2023-04-04T07:11:58;100269.31;;;18.85;81.96
61318;BME280;47201;40.428;-8.436;2023-04-04T07:13:59;100287.09;;;19.24;77.30
61318;BME280;47201;40.428;-8.436;2023-04-04T07:15:59;100276.19;;;19.70;75.93
61318;BME280;47201;40.428;-8.436;2023-04-04T07:18:01;100291.44;;;20.03;72.95
61318;BME280;47201;40.428;-8.436;2023-04-04T07:20:02;100290.63;;;20.39;69.25
61318;BME280;47201;40.428;-8.436;2023-04-04T07:22:02;100291.50;;;20.21;68.56
61318;BME280;47201;40.428;-8.436;2023-04-04T07:24:21;100292.41;;;20.75;68.72
61318;BME280;47201;40.428;-8.436;2023-04-04T07:26:22;100280.97;;;21.76;64.36
61318;BME280;47201;40.428;-8.436;2023-04-04T07:28:41;100298.09;;;23.11;61.78
61318;BME280;47201;40.428;-8.436;2023-04-04T07:31:00;100299.44;;;24.05;55.52
61318;BME280;47201;40.428;-8.436;2023-04-04T07:33:03;100309.22;;;24.74;52.31
61318;BME280;47201;40.428;-8.436;2023-04-04T07:35:04;100309.91;;;25.29;49.94
61318;BME280;47201;40.428;-8.436;2023-04-04T07:37:24;100317.72;;;26.21;49.78
61318;BME280;47201;40.428;-8.436;2023-04-04T07:39:25;100330.34;;;26.67;47.07
61318;BME280;47201;40.428;-8.436;2023-04-04T07:41:26;100329.63;;;26.89;47.80
61318;BME280;47201;40.428;-8.436;2023-04-04T07:43:45;100333.50;;;27.32;48.43
61318;BME280;47201;40.428;-8.436;2023-04-04T07:45:46;100339.91;;;27.54;47.92
61318;BME280;47201;40.428;-8.436;2023-04-04T07:47:46;100334.75;;;25.57;53.72
61318;BME280;47201;40.428;-8.436;2023-04-04T07:50:06;100334.97;;;24.47;59.25
61318;BME280;47201;40.428;-8.436;2023-04-04T07:52:07;100338.53;;;23.48;64.17
61318;BME280;47201;40.428;-8.436;2023-04-04T07:54:08;100332.78;;;22.64;68.02
61318;BME280;47201;40.428;-8.436;2023-04-04T07:56:08;100336.22;;;21.70;71.92
61318;BME280;47201;40.428;-8.436;2023-04-04T07:58:27;100343.06;;;19.77;81.78
61318;BME280;47201;40.428;-8.436;2023-04-04T08:00:47;100342.25;;;19.14;85.26
61318;BME280;47201;40.428;-8.436;2023-04-04T08:03:06;100343.09;;;19.56;79.94
61318;BME280;47201;40.428;-8.436;2023-04-04T08:05:07;100345.84;;;20.50;72.97
61318;BME280;47201;40.428;-8.436;2023-04-04T08:07:07;100346.75;;;22.22;63.79
61318;BME280;47201;40.428;-8.436;2023-04-04T08:09:08;100339.88;;;23.99;57.04
61318;BME280;47201;40.428;-8.436;2023-04-04T08:11:08;100346.66;;;25.53;49.33
61318;BME280;47201;40.428;-8.436;2023-04-04T08:13:27;100346.34;;;26.69;46.40
61318;BME280;47201;40.428;-8.436;2023-04-04T08:15:46;100357.22;;;27.84;45.51
61318;BME280;47201;40.428;-8.436;2023-04-04T08:18:05;100341.31;;;28.70;44.19
61318;BME280;47201;40.428;-8.436;2023-04-04T08:20:25;100350.56;;;29.20;43.44
61318;BME280;47201;40.428;-8.436;2023-04-04T08:22:26;100351.97;;;28.49;46.96
61318;BME280;47201;40.428;-8.436;2023-04-04T08:24:27;100345.50;;;29.48;46.84
61318;BME280;47201;40.428;-8.436;2023-04-04T08:26:27;100346.97;;;30.43;46.33
61318;BME280;47201;40.428;-8.436;2023-04-04T08:28:28;100339.84;;;31.21;46.28
61318;BME280;47201;40.428;-8.436;2023-04-04T08:30:29;100335.31;;;31.59;46.30
61318;BME280;47201;40.428;-8.436;2023-04-04T08:32:30;100331.41;;;32.09;46.65
61318;BME280;47201;40.428;-8.436;2023-04-04T08:34:31;100340.53;;;31.42;47.96
61318;BME280;47201;40.428;-8.436;2023-04-04T08:36:37;100339.59;;;30.75;51.73
61318;BME280;47201;40.428;-8.436;2023-04-04T08:38:38;100329.47;;;31.06;52.50
61318;BME280;47201;40.428;-8.436;2023-04-04T08:40:39;100331.63;;;30.93;52.99
61318;BME280;47201;40.428;-8.436;2023-04-04T08:42:40;100324.47;;;29.63;58.20
61318;BME280;47201;40.428;-8.436;2023-04-04T08:44:42;100333.81;;;30.60;57.92
61318;BME280;47201;40.428;-8.436;2023-04-04T08:47:03;100334.28;;;30.14;58.46
61318;BME280;47201;40.428;-8.436;2023-04-04T08:49:08;100335.19;;;30.93;57.06
61318;BME280;47201;40.428;-8.436;2023-04-04T08:51:11;100346.88;;;31.89;55.94
61318;BME280;47201;40.428;-8.436;2023-04-04T08:53:13;100362.84;;;32.10;54.91
61318;BME280;47201;40.428;-8.436;2023-04-04T08:55:14;100351.31;;;31.32;56.59
61318;BME280;47201;40.428;-8.436;2023-04-04T08:57:15;100360.19;;;30.76;58.93
61318;BME280;47201;40.428;-8.436;2023-04-04T08:59:16;100358.09;;;31.09;57.42
61318;BME280;47201;40.428;-8.436;2023-04-04T09:01:36;100351.69;;;30.70;59.74
61318;BME280;47201;40.428;-8.436;2023-04-04T09:03:37;100357.34;;;30.58;60.95
61318;BME280;47201;40.428;-8.436;2023-04-04T09:05:37;100352.78;;;30.48;61.23
61318;BME280;47201;40.428;-8.436;2023-04-04T09:07:38;100370.34;;;32.16;56.30
61318;BME280;47201;40.428;-8.436;2023-04-04T09:09:39;100376.31;;;33.28;53.64
61318;BME280;47201;40.428;-8.436;2023-04-04T09:11:41;100375.91;;;34.10;50.69
61318;BME280;47201;40.428;-8.436;2023-04-04T09:13:44;100376.91;;;32.14;53.55
61318;BME280;47201;40.428;-8.436;2023-04-04T09:15:48;100372.19;;;31.50;54.77
61318;BME280;47201;40.428;-8.436;2023-04-04T09:17:49;100378.56;;;33.33;52.42
61318;BME280;47201;40.428;-8.436;2023-04-04T09:22:28;100389.84;;;34.91;50.98
61318;BME280;47201;40.428;-8.436;2023-04-04T09:24:39;100397.25;;;36.12;50.07
61318;BME280;47201;40.428;-8.436;2023-04-04T09:26:50;100394.22;;;36.93;48.79
61318;BME280;47201;40.428;-8.436;2023-04-04T09:28:51;100403.41;;;37.30;49.19
61318;BME280;47201;40.428;-8.436;2023-04-04T09:31:12;100394.09;;;36.63;49.34
61318;BME280;47201;40.428;-8.436;2023-04-04T09:33:33;100395.63;;;35.86;50.85
61318;BME280;47201;40.428;-8.436;2023-04-04T09:35:35;100396.47;;;36.58;49.93
61318;BME280;47201;40.428;-8.436;2023-04-04T09:37:36;100397.31;;;36.27;51.23
61318;BME280;47201;40.428;-8.436;2023-04-04T09:39:39;100392.88;;;36.02;51.91
61318;BME280;47201;40.428;-8.436;2023-04-04T09:41:40;100398.75;;;36.14;51.79
61318;BME280;47201;40.428;-8.436;2023-04-04T09:43:42;100392.94;;;34.29;54.31
61318;BME280;47201;40.428;-8.436;2023-04-04T09:45:44;100387.78;;;33.48;54.91
61318;BME280;47201;40.428;-8.436;2023-04-04T09:47:45;100397.63;;;34.70;54.10
61318;BME280;47201;40.428;-8.436;2023-04-04T09:49:45;100386.38;;;33.36;55.77
61318;BME280;47201;40.428;-8.436;2023-04-04T09:51:52;100386.09;;;33.47;55.35
61318;BME280;47201;40.428;-8.436;2023-04-04T09:53:54;100399.63;;;34.51;54.24
61318;BME280;47201;40.428;-8.436;2023-04-04T09:56:17;100395.25;;;33.02;54.07
61318;BME280;47201;40.428;-8.436;2023-04-04T09:58:22;100396.28;;;34.23;53.72
61318;BME280;47201;40.428;-8.436;2023-04-04T10:00:45;100398.78;;;34.75;52.63
61318;BME280;47201;40.428;-8.436;2023-04-04T10:02:47;100406.44;;;33.78;52.92
61318;BME280;47201;40.428;-8.436;2023-04-04T10:04:48;100393.81;;;33.16;53.21
61318;BME280;47201;40.428;-8.436;2023-04-04T10:06:49;100402.69;;;32.36;54.03
61318;BME280;47201;40.428;-8.436;2023-04-04T10:08:50;100401.06;;;31.49;55.22
61318;BME280;47201;40.428;-8.436;2023-04-04T10:10:51;100388.19;;;31.61;54.68
61318;BME280;47201;40.428;-8.436;2023-04-04T10:12:51;100385.34;;;31.15;55.13
61318;BME280;47201;40.428;-8.436;2023-04-04T10:15:11;100387.47;;;30.12;56.38
61318;BME280;47201;40.428;-8.436;2023-04-04T10:17:11;100394.09;;;29.98;56.63
61318;BME280;47201;40.428;-8.436;2023-04-04T10:19:12;100386.75;;;29.79;56.20
61318;BME280;47201;40.428;-8.436;2023-04-04T10:21:17;100402.75;;;29.71;56.26
61318;BME280;47201;40.428;-8.436;2023-04-04T10:23:17;100394.75;;;30.21;56.91
61318;BME280;47201;40.428;-8.436;2023-04-04T10:25:18;100399.81;;;30.85;56.23
61318;BME280;47201;40.428;-8.436;2023-04-04T10:27:19;100385.88;;;31.19;56.56
61318;BME280;47201;40.428;-8.436;2023-04-04T10:29:20;100395.19;;;31.64;56.06
61318;BME280;47201;40.428;-8.436;2023-04-04T10:31:22;100390.09;;;31.51;56.24
61318;BME280;47201;40.428;-8.436;2023-04-04T10:35:24;100393.56;;;31.24;55.84
61318;BME280;47201;40.428;-8.436;2023-04-04T10:37:25;100396.38;;;31.32;56.88
61318;BME280;47201;40.428;-8.436;2023-04-04T10:39:48;100399.31;;;31.68;56.41
61318;BME280;47201;40.428;-8.436;2023-04-04T10:41:52;100391.13;;;30.62;57.76
61318;BME280;47201;40.428;-8.436;2023-04-04T10:44:39;100393.28;;;30.07;57.51
61318;BME280;47201;40.428;-8.436;2023-04-04T10:46:34;100389.75;;;31.16;57.46
61318;BME280;47201;40.428;-8.436;2023-04-04T10:48:38;100387.84;;;32.22;56.70
61318;BME280;47201;40.428;-8.436;2023-04-04T10:50:39;100396.72;;;32.78;56.69
61318;BME280;47201;40.428;-8.436;2023-04-04T10:52:41;100396.72;;;32.78;56.33
61318;BME280;47201;40.428;-8.436;2023-04-04T10:54:42;100396.56;;;32.98;56.58